Terminal Aerodrome Forecast
Issued by NWS Springfield, MO

Home | Current Version | Previous Version | Text Only | Print | Product List | Glossary On
Versions: 1 2 3 4 5 6 7 8 9 10 11 12 13 14 15 16 17 18
000
FTUS43 KSGF 280800 AAA
TAFSGF
TAF AMD
KSGF 280804Z 2808/2906 27009KT P6SM VCSH BKN035
     FM280900 32009G19KT P6SM VCSH OVC035
     FM281200 36007KT P6SM BKN070
     FM281500 36009KT P6SM SKC
     FM290000 34004KT P6SM SKC=

USA.gov is the U.S. government's official web portal to all federal, state and local government web resources and services.